sensor_id;sensor_type;location;lat;lon;timestamp;pressure;altitude;pressure_sealevel;temperature;humidity
71805;BME280;59654;52.216;5.616;2023-06-19T00:00:05;100533.25;;;21.10;53.27
71805;BME280;59654;52.216;5.616;2023-06-19T00:00:43;100536.94;;;21.09;53.01
71805;BME280;59654;52.216;5.616;2023-06-19T00:01:14;100532.00;;;21.14;53.52
71805;BME280;59654;52.216;5.616;2023-06-19T00:01:45;100537.41;;;21.14;53.23
71805;BME280;59654;52.216;5.616;2023-06-19T00:02:17;100538.53;;;21.12;52.91
71805;BME280;59654;52.216;5.616;2023-06-19T00:02:47;100533.13;;;21.12;53.21
71805;BME280;59654;52.216;5.616;2023-06-19T00:03:18;100540.38;;;21.11;53.08
71805;BME280;59654;52.216;5.616;2023-06-19T00:03:49;100536.56;;;21.14;53.29
71805;BME280;59654;52.216;5.616;2023-06-19T00:04:20;100524.97;;;21.12;53.49
71805;BME280;59654;52.216;5.616;2023-06-19T00:04:51;100535.97;;;21.10;53.22
71805;BME280;59654;52.216;5.616;2023-06-19T00:05:22;100536.22;;;21.07;53.06
71805;BME280;59654;52.216;5.616;2023-06-19T00:05:56;100530.34;;;21.02;53.26
71805;BME280;59654;52.216;5.616;2023-06-19T00:06:26;100527.78;;;21.00;53.42
71805;BME280;59654;52.216;5.616;2023-06-19T00:07:00;100531.47;;;20.99;53.62
71805;BME280;59654;52.216;5.616;2023-06-19T00:07:38;100536.91;;;20.99;53.56
71805;BME280;59654;52.216;5.616;2023-06-19T00:08:08;100535.19;;;20.98;53.33
71805;BME280;59654;52.216;5.616;2023-06-19T00:08:40;100536.78;;;21.01;53.22
71805;BME280;59654;52.216;5.616;2023-06-19T00:09:14;100530.94;;;21.05;53.37
71805;BME280;59654;52.216;5.616;2023-06-19T00:09:45;100525.25;;;21.08;54.11
71805;BME280;59654;52.216;5.616;2023-06-19T00:10:15;100532.66;;;21.06;53.57
71805;BME280;59654;52.216;5.616;2023-06-19T00:10:47;100531.25;;;21.12;53.13
71805;BME280;59654;52.216;5.616;2023-06-19T00:11:20;100533.72;;;21.15;53.17
71805;BME280;59654;52.216;5.616;2023-06-19T00:11:51;100535.81;;;21.12;53.39
71805;BME280;59654;52.216;5.616;2023-06-19T00:12:22;100539.53;;;21.11;53.27
71805;BME280;59654;52.216;5.616;2023-06-19T00:12:53;100533.50;;;21.07;53.69
71805;BME280;59654;52.216;5.616;2023-06-19T00:13:23;100533.25;;;21.10;53.29
71805;BME280;59654;52.216;5.616;2023-06-19T00:13:54;100531.66;;;21.07;53.33
71805;BME280;59654;52.216;5.616;2023-06-19T00:14:25;100540.25;;;21.13;53.54
71805;BME280;59654;52.216;5.616;2023-06-19T00:14:57;100534.22;;;21.09;53.29
71805;BME280;59654;52.216;5.616;2023-06-19T00:15:28;100534.09;;;21.11;53.50
71805;BME280;59654;52.216;5.616;2023-06-19T00:16:00;100542.84;;;21.14;53.77
71805;BME280;59654;52.216;5.616;2023-06-19T00:16:31;100543.38;;;21.08;53.69
71805;BME280;59654;52.216;5.616;2023-06-19T00:17:08;100532.66;;;21.06;53.79
71805;BME280;59654;52.216;5.616;2023-06-19T00:17:39;100540.06;;;21.04;53.71
71805;BME280;59654;52.216;5.616;2023-06-19T00:18:10;100537.75;;;21.00;53.90
71805;BME280;59654;52.216;5.616;2023-06-19T00:18:41;100536.91;;;20.99;53.99
71805;BME280;59654;52.216;5.616;2023-06-19T00:19:12;100536.91;;;20.99;53.83
71805;BME280;59654;52.216;5.616;2023-06-19T00:19:43;100539.75;;;20.98;53.80
71805;BME280;59654;52.216;5.616;2023-06-19T00:20:17;100540.25;;;20.92;54.18
71805;BME280;59654;52.216;5.616;2023-06-19T00:20:48;100536.81;;;20.90;54.28
71805;BME280;59654;52.216;5.616;2023-06-19T00:21:19;100533.97;;;20.91;54.30
71805;BME280;59654;52.216;5.616;2023-06-19T00:21:50;100539.13;;;20.94;53.88
71805;BME280;59654;52.216;5.616;2023-06-19T00:22:21;100538.03;;;20.97;54.10
71805;BME280;59654;52.216;5.616;2023-06-19T00:22:52;100543.44;;;20.97;54.58
71805;BME280;59654;52.216;5.616;2023-06-19T00:23:23;100545.16;;;20.98;54.70
71805;BME280;59654;52.216;5.616;2023-06-19T00:23:54;100552.19;;;21.00;54.00
71805;BME280;59654;52.216;5.616;2023-06-19T00:24:24;100538.50;;;21.02;54.07
71805;BME280;59654;52.216;5.616;2023-06-19T00:24:55;100536.47;;;21.04;54.06
71805;BME280;59654;52.216;5.616;2023-06-19T00:25:26;100544.47;;;21.05;54.27
71805;BME280;59654;52.216;5.616;2023-06-19T00:25:57;100540.66;;;21.08;54.37
71805;BME280;59654;52.216;5.616;2023-06-19T00:26:28;100539.91;;;21.06;54.21
71805;BME280;59654;52.216;5.616;2023-06-19T00:26:59;100546.06;;;21.08;54.17
71805;BME280;59654;52.216;5.616;2023-06-19T00:27:35;100544.34;;;21.07;54.08
71805;BME280;59654;52.216;5.616;2023-06-19T00:28:06;100539.91;;;21.06;54.25
71805;BME280;59654;52.216;5.616;2023-06-19T00:28:42;100544.09;;;21.10;54.04
71805;BME280;59654;52.216;5.616;2023-06-19T00:29:17;100540.91;;;21.05;54.45
71805;BME280;59654;52.216;5.616;2023-06-19T00:29:48;100544.63;;;21.04;54.39
71805;BME280;59654;52.216;5.616;2023-06-19T00:30:19;100542.63;;;21.06;54.36
71805;BME280;59654;52.216;5.616;2023-06-19T00:30:55;100554.59;;;21.03;54.64
71805;BME280;59654;52.216;5.616;2023-06-19T00:31:26;100550.31;;;21.01;54.46
71805;BME280;59654;52.216;5.616;2023-06-19T00:31:59;100546.16;;;20.97;54.36
71805;BME280;59654;52.216;5.616;2023-06-19T00:32:31;100552.56;;;20.96;54.59
71805;BME280;59654;52.216;5.616;2023-06-19T00:33:01;100545.09;;;20.88;54.69
71805;BME280;59654;52.216;5.616;2023-06-19T00:33:33;100548.78;;;20.87;55.06
71805;BME280;59654;52.216;5.616;2023-06-19T00:34:04;100547.78;;;20.88;55.30
71805;BME280;59654;52.216;5.616;2023-06-19T00:34:35;100550.50;;;20.88;55.09
71805;BME280;59654;52.216;5.616;2023-06-19T00:35:07;100545.94;;;20.89;55.17
71805;BME280;59654;52.216;5.616;2023-06-19T00:35:38;100546.06;;;20.87;55.04
71805;BME280;59654;52.216;5.616;2023-06-19T00:36:10;100553.81;;;20.92;54.96
71805;BME280;59654;52.216;5.616;2023-06-19T00:36:42;100550.13;;;20.93;55.06
71805;BME280;59654;52.216;5.616;2023-06-19T00:37:13;100547.66;;;20.90;55.85
71805;BME280;59654;52.216;5.616;2023-06-19T00:37:44;100557.19;;;20.84;55.35
71805;BME280;59654;52.216;5.616;2023-06-19T00:38:16;100549.66;;;20.88;55.47
71805;BME280;59654;52.216;5.616;2023-06-19T00:38:47;100557.19;;;20.84;55.44
71805;BME280;59654;52.216;5.616;2023-06-19T00:39:19;100555.47;;;20.83;55.54
71805;BME280;59654;52.216;5.616;2023-06-19T00:39:50;100548.47;;;20.81;55.74
71805;BME280;59654;52.216;5.616;2023-06-19T00:40:32;100555.00;;;20.78;56.06
71805;BME280;59654;52.216;5.616;2023-06-19T00:41:04;100551.81;;;20.73;56.05
71805;BME280;59654;52.216;5.616;2023-06-19T00:41:36;100557.25;;;20.73;56.24
71805;BME280;59654;52.216;5.616;2023-06-19T00:42:06;100559.69;;;20.76;56.12
71805;BME280;59654;52.216;5.616;2023-06-19T00:42:38;100556.97;;;20.76;56.05
71805;BME280;59654;52.216;5.616;2023-06-19T00:43:09;100566.09;;;20.75;56.31
71805;BME280;59654;52.216;5.616;2023-06-19T00:43:43;100553.16;;;20.79;56.25
71805;BME280;59654;52.216;5.616;2023-06-19T00:44:14;100557.72;;;20.78;56.83
71805;BME280;59654;52.216;5.616;2023-06-19T00:44:45;100562.28;;;20.78;56.54
71805;BME280;59654;52.216;5.616;2023-06-19T00:45:16;100559.81;;;20.75;56.47
71805;BME280;59654;52.216;5.616;2023-06-19T00:45:47;100559.22;;;20.71;56.11
71805;BME280;59654;52.216;5.616;2023-06-19T00:46:18;100563.94;;;20.69;56.76
71805;BME280;59654;52.216;5.616;2023-06-19T00:47:08;100562.22;;;20.68;56.81
71805;BME280;59654;52.216;5.616;2023-06-19T00:47:39;100555.66;;;20.70;57.08
71805;BME280;59654;52.216;5.616;2023-06-19T00:48:11;100561.06;;;20.70;57.14
71805;BME280;59654;52.216;5.616;2023-06-19T00:48:42;100557.66;;;20.68;57.07
71805;BME280;59654;52.216;5.616;2023-06-19T00:49:14;100565.19;;;20.65;57.32
71805;BME280;59654;52.216;5.616;2023-06-19T00:49:45;100563.47;;;20.64;57.50
71805;BME280;59654;52.216;5.616;2023-06-19T00:50:17;100564.06;;;20.67;57.39
71805;BME280;59654;52.216;5.616;2023-06-19T00:50:49;100561.34;;;20.67;57.50
71805;BME280;59654;52.216;5.616;2023-06-19T00:51:23;100561.34;;;20.67;57.40
71805;BME280;59654;52.216;5.616;2023-06-19T00:51:54;100566.78;;;20.67;57.60
71805;BME280;59654;52.216;5.616;2023-06-19T00:52:25;100564.50;;;20.72;57.77
71805;BME280;59654;52.216;5.616;2023-06-19T00:52:58;100562.53;;;20.75;57.85
71805;BME280;59654;52.216;5.616;2023-06-19T00:53:32;100568.31;;;20.81;57.40
71805;BME280;59654;52.216;5.616;2023-06-19T00:54:05;100557.72;;;20.78;57.67
71805;BME280;59654;52.216;5.616;2023-06-19T00:54:37;100566.72;;;20.79;57.75
71805;BME280;59654;52.216;5.616;2023-06-19T00:55:08;100564.47;;;20.84;57.76
71805;BME280;59654;52.216;5.616;2023-06-19T00:55:42;100562.88;;;20.81;57.88
71805;BME280;59654;52.216;5.616;2023-06-19T00:56:13;100563.00;;;20.80;57.67
71805;BME280;59654;52.216;5.616;2023-06-19T00:56:46;100571.13;;;20.80;57.99
71805;BME280;59654;52.216;5.616;2023-06-19T00:57:17;100567.94;;;20.75;58.07
71805;BME280;59654;52.216;5.616;2023-06-19T00:57:49;100576.22;;;20.73;58.17
71805;BME280;59654;52.216;5.616;2023-06-19T00:58:22;100567.50;;;20.69;58.78
71805;BME280;59654;52.216;5.616;2023-06-19T00:58:53;100572.06;;;20.69;58.75
71805;BME280;59654;52.216;5.616;2023-06-19T00:59:24;100571.19;;;20.68;58.64
71805;BME280;59654;52.216;5.616;2023-06-19T00:59:57;100570.59;;;20.65;58.68
71805;BME280;59654;52.216;5.616;2023-06-19T01:00:28;100568.88;;;20.64;58.88
71805;BME280;59654;52.216;5.616;2023-06-19T01:01:01;100567.75;;;20.66;58.85
71805;BME280;59654;52.216;5.616;2023-06-19T01:01:32;100574.63;;;20.70;58.82
71805;BME280;59654;52.216;5.616;2023-06-19T01:02:03;100572.94;;;20.69;58.86
71805;BME280;59654;52.216;5.616;2023-06-19T01:02:34;100566.22;;;20.73;58.57
71805;BME280;59654;52.216;5.616;2023-06-19T01:03:05;100571.66;;;20.73;58.75
71805;BME280;59654;52.216;5.616;2023-06-19T01:03:37;100569.19;;;20.70;58.71
71805;BME280;59654;52.216;5.616;2023-06-19T01:04:16;100570.78;;;20.73;58.81
71805;BME280;59654;52.216;5.616;2023-06-19T01:04:48;100572.50;;;20.74;58.95
71805;BME280;59654;52.216;5.616;2023-06-19T01:05:32;100571.41;;;20.77;58.95
71805;BME280;59654;52.216;5.616;2023-06-19T01:06:10;100570.41;;;20.78;58.84
71805;BME280;59654;52.216;5.616;2023-06-19T01:07:00;100564.59;;;20.82;58.73
71805;BME280;59654;52.216;5.616;2023-06-19T01:08:43;100566.44;;;20.82;58.69
71805;BME280;59654;52.216;5.616;2023-06-19T01:09:16;100565.03;;;20.87;58.64
71805;BME280;59654;52.216;5.616;2023-06-19T01:09:58;100569.22;;;20.91;58.49
71805;BME280;59654;52.216;5.616;2023-06-19T01:10:38;100567.63;;;20.89;59.13
71805;BME280;59654;52.216;5.616;2023-06-19T01:11:18;100560.78;;;20.85;58.84
71805;BME280;59654;52.216;5.616;2023-06-19T01:11:57;100567.44;;;20.81;59.16
71805;BME280;59654;52.216;5.616;2023-06-19T01:12:40;100570.16;;;20.81;59.25
71805;BME280;59654;52.216;5.616;2023-06-19T01:13:45;100570.53;;;20.76;59.81
71805;BME280;59654;52.216;5.616;2023-06-19T01:14:26;100569.19;;;20.70;59.86
71805;BME280;59654;52.216;5.616;2023-06-19T01:15:03;100566.03;;;20.65;60.18
71805;BME280;59654;52.216;5.616;2023-06-19T01:15:38;100578.13;;;20.61;60.40
71805;BME280;59654;52.216;5.616;2023-06-19T01:16:13;100578.63;;;20.55;60.51
71805;BME280;59654;52.216;5.616;2023-06-19T01:16:46;100579.91;;;20.51;60.57
71805;BME280;59654;52.216;5.616;2023-06-19T01:17:18;100582.06;;;20.57;60.29
71805;BME280;59654;52.216;5.616;2023-06-19T01:17:49;100581.22;;;20.57;60.46
71805;BME280;59654;52.216;5.616;2023-06-19T01:18:21;100584.28;;;20.63;60.16
71805;BME280;59654;52.216;5.616;2023-06-19T01:18:53;100581.31;;;20.66;60.13
71805;BME280;59654;52.216;5.616;2023-06-19T01:19:24;100580.03;;;20.70;59.85
71805;BME280;59654;52.216;5.616;2023-06-19T01:19:56;100573.91;;;20.68;60.26
71805;BME280;59654;52.216;5.616;2023-06-19T01:20:28;100573.63;;;20.71;60.12
71805;BME280;59654;52.216;5.616;2023-06-19T01:21:13;100576.34;;;20.71;60.17
71805;BME280;59654;52.216;5.616;2023-06-19T01:21:46;100587.91;;;20.73;60.38
71805;BME280;59654;52.216;5.616;2023-06-19T01:22:32;100577.06;;;20.73;60.46
71805;BME280;59654;52.216;5.616;2023-06-19T01:23:10;100578.47;;;20.68;60.39
71805;BME280;59654;52.216;5.616;2023-06-19T01:23:42;100579.34;;;20.68;60.74
71805;BME280;59654;52.216;5.616;2023-06-19T01:24:14;100575.47;;;20.71;60.53
71805;BME280;59654;52.216;5.616;2023-06-19T01:24:46;100577.47;;;20.69;60.64
71805;BME280;59654;52.216;5.616;2023-06-19T01:25:16;100591.16;;;20.67;60.81
71805;BME280;59654;52.216;5.616;2023-06-19T01:25:47;100578.00;;;20.63;61.09
71805;BME280;59654;52.216;5.616;2023-06-19T01:26:22;100569.00;;;20.62;61.08
71805;BME280;59654;52.216;5.616;2023-06-19T01:26:56;100579.97;;;20.61;61.30
71805;BME280;59654;52.216;5.616;2023-06-19T01:27:28;100581.34;;;20.55;61.33
71805;BME280;59654;52.216;5.616;2023-06-19T01:28:05;100580.50;;;20.44;61.88
71805;BME280;59654;52.216;5.616;2023-06-19T01:28:42;100580.75;;;20.41;62.10
71805;BME280;59654;52.216;5.616;2023-06-19T01:29:15;100578.44;;;20.36;62.28
71805;BME280;59654;52.216;5.616;2023-06-19T01:29:50;100582.72;;;20.38;62.09
71805;BME280;59654;52.216;5.616;2023-06-19T01:30:21;100575.13;;;20.32;62.19
71805;BME280;59654;52.216;5.616;2023-06-19T01:31:00;100577.47;;;20.26;62.45
71805;BME280;59654;52.216;5.616;2023-06-19T01:31:52;100576.28;;;20.19;63.09
71805;BME280;59654;52.216;5.616;2023-06-19T01:33:26;100579.47;;;20.13;63.17
71805;BME280;59654;52.216;5.616;2023-06-19T01:34:02;100580.22;;;20.15;63.07
71805;BME280;59654;52.216;5.616;2023-06-19T01:34:36;100582.19;;;20.13;63.38
71805;BME280;59654;52.216;5.616;2023-06-19T01:35:09;100585.63;;;20.15;63.34
71805;BME280;59654;52.216;5.616;2023-06-19T01:35:42;100586.50;;;20.15;63.38
71805;BME280;59654;52.216;5.616;2023-06-19T01:36:15;100580.81;;;20.18;63.35
71805;BME280;59654;52.216;5.616;2023-06-19T01:36:48;100582.69;;;20.18;63.32
71805;BME280;59654;52.216;5.616;2023-06-19T01:37:25;100576.28;;;20.19;63.12
71805;BME280;59654;52.216;5.616;2023-06-19T01:38:01;100583.53;;;20.18;63.46
71805;BME280;59654;52.216;5.616;2023-06-19T01:38:35;100582.06;;;20.14;63.49
71805;BME280;59654;52.216;5.616;2023-06-19T01:39:08;100580.94;;;20.17;63.74
71805;BME280;59654;52.216;5.616;2023-06-19T01:39:41;100586.38;;;20.17;63.65
71805;BME280;59654;52.216;5.616;2023-06-19T01:40:17;100582.69;;;20.18;63.37
71805;BME280;59654;52.216;5.616;2023-06-19T01:40:59;100583.66;;;20.17;63.72
71805;BME280;59654;52.216;5.616;2023-06-19T01:41:32;100585.75;;;20.13;63.85
71805;BME280;59654;52.216;5.616;2023-06-19T01:42:06;100585.38;;;20.18;63.70
71805;BME280;59654;52.216;5.616;2023-06-19T01:42:42;100590.19;;;20.14;63.78
71805;BME280;59654;52.216;5.616;2023-06-19T01:43:15;100591.16;;;20.13;63.78
71805;BME280;59654;52.216;5.616;2023-06-19T01:43:47;100588.59;;;20.12;64.02
71805;BME280;59654;52.216;5.616;2023-06-19T01:44:21;100595.09;;;20.09;64.67
71805;BME280;59654;52.216;5.616;2023-06-19T01:44:53;100596.22;;;20.07;64.10
71805;BME280;59654;52.216;5.616;2023-06-19T01:45:24;100590.34;;;20.01;64.58
71805;BME280;59654;52.216;5.616;2023-06-19T01:45:55;100589.94;;;20.06;64.12
71805;BME280;59654;52.216;5.616;2023-06-19T01:46:27;100588.09;;;20.07;64.32
71805;BME280;59654;52.216;5.616;2023-06-19T01:46:58;100594.25;;;20.09;64.16
71805;BME280;59654;52.216;5.616;2023-06-19T01:47:35;100595.59;;;20.14;63.84
71805;BME280;59654;52.216;5.616;2023-06-19T01:48:08;100596.22;;;20.18;63.96
71805;BME280;59654;52.216;5.616;2023-06-19T01:48:42;100597.06;;;20.18;63.97
71805;BME280;59654;52.216;5.616;2023-06-19T01:49:12;100592.41;;;20.20;63.73
71805;BME280;59654;52.216;5.616;2023-06-19T01:49:44;100596.47;;;20.15;64.24
71805;BME280;59654;52.216;5.616;2023-06-19T01:50:15;100593.75;;;20.15;64.17
71805;BME280;59654;52.216;5.616;2023-06-19T01:50:48;100604.34;;;20.18;63.94
71805;BME280;59654;52.216;5.616;2023-06-19T01:51:20;100597.66;;;20.22;64.06
71805;BME280;59654;52.216;5.616;2023-06-19T01:51:51;100600.34;;;20.22;64.00
71805;BME280;59654;52.216;5.616;2023-06-19T01:52:23;100602.09;;;20.23;63.94
71805;BME280;59654;52.216;5.616;2023-06-19T01:52:55;100600.84;;;20.27;63.64
71805;BME280;59654;52.216;5.616;2023-06-19T01:53:26;100595.44;;;20.27;63.76
71805;BME280;59654;52.216;5.616;2023-06-19T01:53:56;100602.56;;;20.28;63.99
71805;BME280;59654;52.216;5.616;2023-06-19T01:54:27;100602.31;;;20.31;63.50
71805;BME280;59654;52.216;5.616;2023-06-19T01:54:59;100598.50;;;20.33;63.47
71805;BME280;59654;52.216;5.616;2023-06-19T01:55:30;100604.06;;;20.32;63.61
71805;BME280;59654;52.216;5.616;2023-06-19T01:56:02;100603.69;;;20.36;63.48
71805;BME280;59654;52.216;5.616;2023-06-19T01:56:35;100615.22;;;20.38;63.47
71805;BME280;59654;52.216;5.616;2023-06-19T01:57:07;100604.19;;;20.30;64.14
71805;BME280;59654;52.216;5.616;2023-06-19T01:57:38;100609.72;;;20.29;63.78
71805;BME280;59654;52.216;5.616;2023-06-19T01:58:09;100607.38;;;20.24;64.41
71805;BME280;59654;52.216;5.616;2023-06-19T01:58:40;100613.66;;;20.25;64.13
71805;BME280;59654;52.216;5.616;2023-06-19T01:59:10;100608.25;;;20.25;64.38
71805;BME280;59654;52.216;5.616;2023-06-19T01:59:41;100610.94;;;20.25;64.46
71805;BME280;59654;52.216;5.616;2023-06-19T02:00:14;100611.06;;;20.23;64.35
71805;BME280;59654;52.216;5.616;2023-06-19T02:00:44;100614.06;;;20.20;64.67
71805;BME280;59654;52.216;5.616;2023-06-19T02:01:16;100616.38;;;20.25;64.27
71805;BME280;59654;52.216;5.616;2023-06-19T02:01:48;100611.06;;;20.23;64.35
71805;BME280;59654;52.216;5.616;2023-06-19T02:02:19;100619.31;;;20.22;64.51
71805;BME280;59654;52.216;5.616;2023-06-19T02:02:49;100617.00;;;20.17;64.87
71805;BME280;59654;52.216;5.616;2023-06-19T02:03:22;100618.50;;;20.21;64.58
71805;BME280;59654;52.216;5.616;2023-06-19T02:03:53;100619.72;;;20.17;64.52
71805;BME280;59654;52.216;5.616;2023-06-19T02:04:25;100618.84;;;20.17;64.47
71805;BME280;59654;52.216;5.616;2023-06-19T02:04:55;100613.31;;;20.18;64.60
71805;BME280;59654;52.216;5.616;2023-06-19T02:05:26;100622.19;;;20.20;64.36
71805;BME280;59654;52.216;5.616;2023-06-19T02:05:57;100624.72;;;20.22;64.39
71805;BME280;59654;52.216;5.616;2023-06-19T02:06:30;100623.63;;;20.24;64.46
71805;BME280;59654;52.216;5.616;2023-06-19T02:07:01;100622.75;;;20.24;64.16
71805;BME280;59654;52.216;5.616;2023-06-19T02:07:32;100630.03;;;20.23;64.68
71805;BME280;59654;52.216;5.616;2023-06-19T02:08:03;100618.09;;;20.26;64.34
71805;BME280;59654;52.216;5.616;2023-06-19T02:08:44;100626.44;;;20.23;64.71
71805;BME280;59654;52.216;5.616;2023-06-19T02:09:15;100624.59;;;20.23;64.72
71805;BME280;59654;52.216;5.616;2023-06-19T02:09:48;100621.31;;;20.20;64.98
71805;BME280;59654;52.216;5.616;2023-06-19T02:10:19;100627.97;;;20.16;65.00
71805;BME280;59654;52.216;5.616;2023-06-19T02:10:56;100622.53;;;20.16;65.09
71805;BME280;59654;52.216;5.616;2023-06-19T02:11:27;100628.09;;;20.14;65.45
71805;BME280;59654;52.216;5.616;2023-06-19T02:12:01;100631.91;;;20.12;65.79
71805;BME280;59654;52.216;5.616;2023-06-19T02:12:32;100623.78;;;20.12;65.68
71805;BME280;59654;52.216;5.616;2023-06-19T02:13:02;100632.03;;;20.10;65.82
71805;BME280;59654;52.216;5.616;2023-06-19T02:13:33;100635.72;;;20.09;65.94
71805;BME280;59654;52.216;5.616;2023-06-19T02:14:10;100629.44;;;20.09;66.07
71805;BME280;59654;52.216;5.616;2023-06-19T02:14:41;100629.97;;;20.02;66.65
71805;BME280;59654;52.216;5.616;2023-06-19T02:15:12;100627.25;;;20.02;66.39
71805;BME280;59654;52.216;5.616;2023-06-19T02:15:44;100624.66;;;20.01;66.47
71805;BME280;59654;52.216;5.616;2023-06-19T02:16:15;100627.59;;;19.98;66.78
71805;BME280;59654;52.216;5.616;2023-06-19T02:16:46;100628.72;;;19.95;66.53
71805;BME280;59654;52.216;5.616;2023-06-19T02:17:16;100627.50;;;19.88;67.29
71805;BME280;59654;52.216;5.616;2023-06-19T02:17:49;100631.19;;;19.87;67.34
71805;BME280;59654;52.216;5.616;2023-06-19T02:18:25;100623.31;;;19.84;67.50
71805;BME280;59654;52.216;5.616;2023-06-19T02:18:56;100635.13;;;19.83;67.51
71805;BME280;59654;52.216;5.616;2023-06-19T02:19:28;100637.09;;;19.81;67.61
71805;BME280;59654;52.216;5.616;2023-06-19T02:19:58;100626.03;;;19.84;67.17
71805;BME280;59654;52.216;5.616;2023-06-19T02:20:29;100626.25;;;19.81;67.64
71805;BME280;59654;52.216;5.616;2023-06-19T02:21:00;100624.88;;;19.76;68.31
71805;BME280;59654;52.216;5.616;2023-06-19T02:21:31;100628.94;;;19.70;68.71
71805;BME280;59654;52.216;5.616;2023-06-19T02:22:02;100628.81;;;19.72;68.52
71805;BME280;59654;52.216;5.616;2023-06-19T02:22:33;100624.28;;;19.72;68.42
71805;BME280;59654;52.216;5.616;2023-06-19T02:23:03;100631.38;;;19.73;68.13
71805;BME280;59654;52.216;5.616;2023-06-19T02:23:34;100623.03;;;19.65;68.79
71805;BME280;59654;52.216;5.616;2023-06-19T02:24:06;100630.66;;;19.60;68.82
71805;BME280;59654;52.216;5.616;2023-06-19T02:24:37;100622.06;;;19.55;69.64
71805;BME280;59654;52.216;5.616;2023-06-19T02:25:08;100624.13;;;19.40;69.96
71805;BME280;59654;52.216;5.616;2023-06-19T02:25:46;100627.41;;;19.32;70.25
71805;BME280;59654;52.216;5.616;2023-06-19T02:26:16;100628.16;;;19.34;69.78
71805;BME280;59654;52.216;5.616;2023-06-19T02:26:47;100625.47;;;19.34;70.24
71805;BME280;59654;52.216;5.616;2023-06-19T02:27:25;100628.75;;;19.27;71.16
71805;BME280;59654;52.216;5.616;2023-06-19T02:27:56;100631.09;;;19.20;71.43
71805;BME280;59654;52.216;5.616;2023-06-19T02:28:27;100638.56;;;19.17;71.87
71805;BME280;59654;52.216;5.616;2023-06-19T02:28:59;100636.22;;;19.12;71.57
71805;BME280;59654;52.216;5.616;2023-06-19T02:29:29;100635.13;;;19.15;71.58
71805;BME280;59654;52.216;5.616;2023-06-19T02:30:00;100629.47;;;19.18;72.13
71805;BME280;59654;52.216;5.616;2023-06-19T02:30:31;100621.72;;;19.13;72.41
71805;BME280;59654;52.216;5.616;2023-06-19T02:31:02;100623.56;;;19.13;72.33
71805;BME280;59654;52.216;5.616;2023-06-19T02:31:33;100628.72;;;19.16;72.48
71805;BME280;59654;52.216;5.616;2023-06-19T02:32:05;100627.88;;;19.15;72.55
71805;BME280;59654;52.216;5.616;2023-06-19T02:32:38;100632.81;;;19.21;72.26
71805;BME280;59654;52.216;5.616;2023-06-19T02:33:08;100635.25;;;19.24;71.91
71805;BME280;59654;52.216;5.616;2023-06-19T02:33:39;100631.56;;;19.25;72.25
71805;BME280;59654;52.216;5.616;2023-06-19T02:34:10;100630.97;;;19.22;72.22
71805;BME280;59654;52.216;5.616;2023-06-19T02:34:41;100635.63;;;19.20;72.70
71805;BME280;59654;52.216;5.616;2023-06-19T02:35:11;100637.81;;;19.15;73.10
71805;BME280;59654;52.216;5.616;2023-06-19T02:35:42;100630.69;;;19.14;72.92
71805;BME280;59654;52.216;5.616;2023-06-19T02:36:17;100633.41;;;19.14;73.12
71805;BME280;59654;52.216;5.616;2023-06-19T02:36:50;100634.72;;;19.08;74.19
71805;BME280;59654;52.216;5.616;2023-06-19T02:37:21;100635.47;;;19.10;73.56
71805;BME280;59654;52.216;5.616;2023-06-19T02:37:52;100642.72;;;19.10;73.73
71805;BME280;59654;52.216;5.616;2023-06-19T02:38:27;100641.47;;;19.03;74.53
71805;BME280;59654;52.216;5.616;2023-06-19T02:39:00;100641.91;;;18.96;74.96
71805;BME280;59654;52.216;5.616;2023-06-19T02:39:31;100640.41;;;18.92;75.18
71805;BME280;59654;52.216;5.616;2023-06-19T02:40:04;100637.97;;;18.89;75.32
71805;BME280;59654;52.216;5.616;2023-06-19T02:40:37;100640.91;;;18.86;75.88
71805;BME280;59654;52.216;5.616;2023-06-19T02:41:08;100646.31;;;18.86;75.79
71805;BME280;59654;52.216;5.616;2023-06-19T02:41:39;100646.06;;;18.89;75.52
71805;BME280;59654;52.216;5.616;2023-06-19T02:42:22;100640.25;;;18.83;76.66
71805;BME280;59654;52.216;5.616;2023-06-19T02:42:53;100636.47;;;18.85;75.59
71805;BME280;59654;52.216;5.616;2023-06-19T02:43:24;100636.81;;;18.81;76.11
71805;BME280;59654;52.216;5.616;2023-06-19T02:43:55;100636.81;;;18.81;76.57
71805;BME280;59654;52.216;5.616;2023-06-19T02:44:25;100640.59;;;18.78;77.09
71805;BME280;59654;52.216;5.616;2023-06-19T02:44:57;100642.56;;;18.76;76.85
71805;BME280;59654;52.216;5.616;2023-06-19T02:45:33;100629.91;;;18.77;76.94
71805;BME280;59654;52.216;5.616;2023-06-19T02:46:05;100643.41;;;18.77;77.14
71805;BME280;59654;52.216;5.616;2023-06-19T02:46:35;100644.75;;;18.71;77.65
71805;BME280;59654;52.216;5.616;2023-06-19T02:47:06;100648.78;;;18.65;77.75
71805;BME280;59654;52.216;5.616;2023-06-19T02:47:37;100641.53;;;18.66;77.50
71805;BME280;59654;52.216;5.616;2023-06-19T02:48:10;100642.28;;;18.68;77.74
71805;BME280;59654;52.216;5.616;2023-06-19T02:48:41;100647.84;;;18.78;77.33
71805;BME280;59654;52.216;5.616;2023-06-19T02:49:11;100646.13;;;18.77;77.40
71805;BME280;59654;52.216;5.616;2023-06-19T02:49:42;100638.66;;;18.80;77.52
71805;BME280;59654;52.216;5.616;2023-06-19T02:50:14;100646.31;;;18.86;77.13
71805;BME280;59654;52.216;5.616;2023-06-19T02:50:44;100649.75;;;18.88;77.14
71805;BME280;59654;52.216;5.616;2023-06-19T02:51:16;100648.25;;;18.84;77.57
71805;BME280;59654;52.216;5.616;2023-06-19T02:51:46;100649.22;;;18.83;77.47
71805;BME280;59654;52.216;5.616;2023-06-19T02:52:18;100652.34;;;18.90;76.62
71805;BME280;59654;52.216;5.616;2023-06-19T02:52:48;100642.63;;;18.87;77.14
71805;BME280;59654;52.216;5.616;2023-06-19T02:53:19;100646.75;;;18.80;77.70